createdAt,value
2018-05-26T00:01:39.449Z,10.87
2018-05-26T00:04:07.017Z,11.70
2018-05-26T00:06:34.512Z,11.00
2018-05-26T00:09:02.036Z,9.60
2018-05-26T00:11:29.536Z,11.00
2018-05-26T00:13:57.054Z,11.50
2018-05-26T00:16:24.558Z,11.97
2018-05-26T00:18:53.581Z,9.00
2018-05-26T00:21:21.873Z,10.00
2018-05-26T00:23:49.388Z,9.70
2018-05-26T00:26:16.905Z,10.97
2018-05-26T00:28:44.429Z,10.07
2018-05-26T00:31:12.705Z,10.73
2018-05-26T00:33:40.996Z,10.33
2018-05-26T00:36:08.494Z,8.07
2018-05-26T00:38:36.010Z,9.03
2018-05-26T00:41:03.513Z,11.20
2018-05-26T00:43:31.028Z,11.00
2018-05-26T00:45:58.542Z,12.53
2018-05-26T00:48:26.045Z,12.50
2018-05-26T00:50:53.560Z,9.50
2018-05-26T00:53:21.828Z,7.80
2018-05-26T00:55:49.350Z,13.40
2018-05-26T00:58:16.896Z,15.27
2018-05-26T01:00:44.412Z,19.43
2018-05-26T01:03:11.912Z,11.70
2018-05-26T01:05:39.432Z,12.03
2018-05-26T01:08:07.032Z,14.20
2018-05-26T01:10:34.544Z,9.80
2018-05-26T01:13:03.554Z,13.03
2018-05-26T01:15:31.840Z,12.70
2018-05-26T01:18:00.142Z,11.80
2018-05-26T01:20:27.684Z,14.13
2018-05-26T01:22:55.950Z,13.17
2018-05-26T01:25:24.251Z,15.40
2018-05-26T01:27:51.752Z,11.17
2018-05-26T01:30:19.268Z,12.70
2018-05-26T01:32:46.920Z,9.77
2018-05-26T01:35:14.486Z,10.60
2018-05-26T01:37:42.004Z,9.47
2018-05-26T01:40:09.596Z,11.70
2018-05-26T01:42:37.857Z,16.00
2018-05-26T01:45:06.129Z,10.70
2018-05-26T01:47:34.428Z,13.23
2018-05-26T01:50:01.929Z,12.93
2018-05-26T01:52:29.453Z,10.57
2018-05-26T01:54:56.953Z,7.90
2018-05-26T01:57:24.472Z,9.77
2018-05-26T01:59:51.977Z,10.90
2018-05-26T02:02:20.297Z,11.80
2018-05-26T02:04:47.796Z,11.63
2018-05-26T02:07:15.312Z,13.17
2018-05-26T02:09:42.811Z,11.43
2018-05-26T02:12:10.340Z,13.73
2018-05-26T02:14:37.894Z,9.60
2018-05-26T02:17:05.553Z,12.33
2018-05-26T02:19:33.052Z,10.63
2018-05-26T02:22:00.569Z,10.90
2018-05-26T02:24:28.074Z,14.57
2018-05-26T02:26:55.596Z,9.87
2018-05-26T02:29:23.136Z,9.30
2018-05-26T02:31:50.652Z,10.93
2018-05-26T02:34:18.264Z,8.67
2018-05-26T02:36:45.781Z,9.80
2018-05-26T02:39:13.281Z,12.47
2018-05-26T02:41:40.838Z,10.93
2018-05-26T02:44:08.356Z,10.57
2018-05-26T02:46:35.887Z,17.13
2018-05-26T02:49:03.399Z,12.20
2018-05-26T02:51:30.911Z,13.40
2018-05-26T02:53:58.428Z,13.50
2018-05-26T02:56:25.930Z,13.63
2018-05-26T02:58:53.449Z,14.43
2018-05-26T03:01:20.997Z,21.23
2018-05-26T03:03:48.032Z,14.83
2018-05-26T03:06:21.319Z,19.20
2018-05-26T03:08:55.374Z,14.97
2018-05-26T03:11:28.619Z,39.70
2018-05-26T03:14:01.904Z,24.00
2018-05-26T03:16:35.204Z,32.17
2018-05-26T03:19:02.724Z,39.10
2018-05-26T03:21:30.232Z,37.07
2018-05-26T03:23:58.525Z,38.63
2018-05-26T03:26:26.080Z,35.40
2018-05-26T03:28:53.602Z,42.63
2018-05-26T03:31:21.104Z,46.13
2018-05-26T03:33:48.659Z,44.97
2018-05-26T03:36:16.224Z,47.17
2018-05-26T03:38:44.481Z,47.00
2018-05-26T03:41:12.748Z,46.10
2018-05-26T03:43:41.141Z,48.50
2018-05-26T03:46:09.404Z,45.43
2018-05-26T03:48:37.694Z,41.50
2018-05-26T03:51:05.969Z,44.63
2018-05-26T03:53:33.497Z,47.10
2018-05-26T03:56:12.815Z,46.33
2018-05-26T03:58:52.362Z,45.43
2018-05-26T04:01:19.860Z,51.23
2018-05-26T04:03:48.254Z,42.90
2018-05-26T04:06:15.761Z,43.87
2018-05-26T04:08:43.505Z,42.33
2018-05-26T04:11:11.024Z,47.40
2018-05-26T04:13:38.524Z,42.10
2018-05-26T04:16:06.044Z,39.50
2018-05-26T04:18:33.553Z,38.40
2018-05-26T04:21:01.069Z,36.33
2018-05-26T04:23:28.580Z,30.93
2018-05-26T04:25:56.097Z,32.43
2018-05-26T04:28:23.596Z,34.07
2018-05-26T04:30:51.108Z,34.70
2018-05-26T04:33:18.603Z,32.10
2018-05-26T04:35:46.125Z,28.03
2018-05-26T04:38:13.620Z,22.63
2018-05-26T04:40:41.140Z,22.80
2018-05-26T04:43:08.644Z,19.50
2018-05-26T04:45:36.162Z,20.20
2018-05-26T04:48:03.668Z,16.33
2018-05-26T04:50:31.532Z,16.33
2018-05-26T04:52:59.032Z,15.03
2018-05-26T04:55:26.900Z,14.30
2018-05-26T04:57:54.396Z,13.10
2018-05-26T05:00:21.896Z,14.60
2018-05-26T05:02:49.440Z,13.40
2018-05-26T05:05:17.705Z,14.57
2018-05-26T05:07:45.220Z,12.60
2018-05-26T05:10:12.720Z,11.83
2018-05-26T05:12:40.232Z,12.67
2018-05-26T05:15:07.733Z,8.40
2018-05-26T05:17:35.325Z,14.00
2018-05-26T05:20:02.888Z,12.10
2018-05-26T05:22:30.408Z,10.90
2018-05-26T05:24:57.908Z,10.10
2018-05-26T05:27:25.425Z,9.07
2018-05-26T05:29:52.922Z,12.57
2018-05-26T05:32:20.441Z,7.67
2018-05-26T05:34:47.936Z,11.27
2018-05-26T05:37:15.446Z,7.90
2018-05-26T05:39:42.944Z,8.83
2018-05-26T05:42:11.225Z,9.47
2018-05-26T05:44:38.717Z,9.80
2018-05-26T05:47:06.247Z,11.70
2018-05-26T05:49:33.740Z,7.50
2018-05-26T05:52:01.257Z,9.80
2018-05-26T05:54:28.754Z,7.77
2018-05-26T05:56:56.273Z,7.60
2018-05-26T05:59:23.841Z,7.03
2018-05-26T06:01:51.397Z,8.03
2018-05-26T06:04:18.948Z,9.50
2018-05-26T06:06:46.513Z,6.43
2018-05-26T06:09:14.028Z,8.80
2018-05-26T06:11:41.529Z,10.17
2018-05-26T06:14:09.084Z,7.10
2018-05-26T06:16:36.580Z,7.17
2018-05-26T06:19:04.096Z,10.87
2018-05-26T06:21:32.356Z,5.17
2018-05-26T06:24:00.637Z,5.87
2018-05-26T06:26:28.918Z,7.23
2018-05-26T06:28:57.193Z,5.07
2018-05-26T06:31:25.459Z,6.33
2018-05-26T06:33:53.741Z,4.83
2018-05-26T06:36:22.001Z,4.47
2018-05-26T06:38:49.522Z,10.37
2018-05-26T06:41:17.049Z,7.93
2018-05-26T06:43:44.611Z,5.47
2018-05-26T06:46:12.117Z,6.63
2018-05-26T06:48:39.725Z,4.80
2018-05-26T06:51:07.288Z,4.60
2018-05-26T06:53:34.844Z,4.67
2018-05-26T06:56:02.404Z,4.97
2018-05-26T06:58:29.959Z,4.27
2018-05-26T07:00:58.340Z,6.40
2018-05-26T07:03:25.900Z,4.07
2018-05-26T07:05:53.463Z,4.60
2018-05-26T07:08:20.959Z,4.73
2018-05-26T07:10:48.482Z,4.10
2018-05-26T07:13:16.032Z,3.80
2018-05-26T07:15:43.593Z,4.07
2018-05-26T07:18:11.152Z,4.13
2018-05-26T07:20:38.664Z,3.57
2018-05-26T07:23:06.165Z,4.00
2018-05-26T07:25:33.684Z,4.03
2018-05-26T07:28:02.688Z,5.93
2018-05-26T07:30:30.209Z,5.10
2018-05-26T07:32:57.741Z,4.43
2018-05-26T07:35:25.296Z,4.17
2018-05-26T07:37:52.793Z,6.13
2018-05-26T07:40:20.304Z,5.23
2018-05-26T07:42:48.556Z,6.70
2018-05-26T07:45:16.148Z,6.43
2018-05-26T07:47:43.640Z,5.60
2018-05-26T07:50:11.156Z,4.17
2018-05-26T07:52:39.455Z,3.70
2018-05-26T07:55:06.977Z,5.67
2018-05-26T07:57:35.249Z,5.80
2018-05-26T08:00:03.594Z,7.13
2018-05-26T08:02:31.072Z,4.67
2018-05-26T08:04:58.568Z,5.67
2018-05-26T08:07:26.081Z,4.10
2018-05-26T08:09:53.577Z,4.40
2018-05-26T08:12:21.856Z,7.43
2018-05-26T08:14:49.416Z,4.40
2018-05-26T08:17:16.994Z,4.33
2018-05-26T08:19:44.489Z,4.30
2018-05-26T08:22:12.005Z,5.27
2018-05-26T08:24:39.506Z,4.70
2018-05-26T08:27:07.022Z,4.60
2018-05-26T08:29:34.524Z,5.00
2018-05-26T08:32:02.038Z,4.80
2018-05-26T08:34:29.534Z,4.53
2018-05-26T08:36:57.049Z,4.57
2018-05-26T08:39:24.550Z,6.27
2018-05-26T08:41:52.157Z,9.20
2018-05-26T08:44:19.652Z,5.00
2018-05-26T08:46:47.169Z,5.87
2018-05-26T08:49:14.661Z,5.07
2018-05-26T08:51:42.188Z,6.50
2018-05-26T08:54:09.691Z,6.10
2018-05-26T08:56:37.221Z,5.10
2018-05-26T08:59:04.772Z,5.87
2018-05-26T09:01:32.336Z,6.60
2018-05-26T09:03:59.848Z,5.27
2018-05-26T09:06:27.390Z,5.43
2018-05-26T09:08:54.881Z,7.37
2018-05-26T09:11:23.145Z,6.47
2018-05-26T09:13:50.736Z,8.90
2018-05-26T09:16:18.296Z,7.33
2018-05-26T09:18:45.818Z,8.70
2018-05-26T09:21:14.094Z,5.47
2018-05-26T09:23:41.696Z,6.37
2018-05-26T09:26:09.245Z,5.97
2018-05-26T09:28:37.528Z,5.70
2018-05-26T09:31:05.086Z,6.60
2018-05-26T09:33:32.603Z,6.43
2018-05-26T09:36:00.103Z,5.73
2018-05-26T09:38:27.622Z,7.73
2018-05-26T09:40:55.121Z,6.70
2018-05-26T09:43:22.680Z,5.40
2018-05-26T09:45:50.249Z,5.33
2018-05-26T09:48:17.801Z,9.40
2018-05-26T09:50:45.300Z,5.33
2018-05-26T09:53:12.820Z,7.50
2018-05-26T09:55:40.317Z,5.90
2018-05-26T09:58:07.849Z,5.30
2018-05-26T10:00:35.352Z,5.77
2018-05-26T10:03:02.854Z,5.40
2018-05-26T10:05:30.372Z,5.23
2018-05-26T10:07:57.876Z,5.90
2018-05-26T10:10:25.392Z,5.87
2018-05-26T10:12:53.710Z,5.67
2018-05-26T10:15:21.960Z,6.43
2018-05-26T10:17:50.225Z,9.00
2018-05-26T10:20:18.512Z,7.00
2018-05-26T10:22:46.776Z,4.90
2018-05-26T10:25:15.056Z,7.70
2018-05-26T10:27:43.329Z,5.20
2018-05-26T10:30:11.611Z,5.40
2018-05-26T10:32:39.872Z,4.13
2018-05-26T10:35:07.385Z,5.10
2018-05-26T10:37:34.885Z,5.90
2018-05-26T10:40:02.404Z,5.87
2018-05-26T10:42:29.908Z,6.83
2018-05-26T10:44:57.420Z,6.27
2018-05-26T10:47:24.912Z,4.70
2018-05-26T10:49:52.425Z,3.70
2018-05-26T10:52:19.921Z,4.13
2018-05-26T10:54:47.449Z,4.37
2018-05-26T10:57:14.948Z,4.37
2018-05-26T10:59:42.449Z,5.27
2018-05-26T11:02:09.986Z,4.23
2018-05-26T11:04:38.252Z,5.20
2018-05-26T11:07:06.532Z,5.47
2018-05-26T11:09:34.797Z,4.90
2018-05-26T11:12:03.084Z,5.47
2018-05-26T11:14:31.352Z,5.10
2018-05-26T11:16:59.658Z,5.27
2018-05-26T11:19:27.161Z,4.63
2018-05-26T11:21:54.680Z,7.03
2018-05-26T11:24:22.199Z,4.83
2018-05-26T11:26:49.719Z,6.00
2018-05-26T11:29:17.216Z,5.57
2018-05-26T11:31:45.509Z,6.13
2018-05-26T11:34:13.773Z,4.40
2018-05-26T11:36:42.057Z,5.93
2018-05-26T11:39:10.565Z,5.70
2018-05-26T11:41:38.089Z,6.93
2018-05-26T11:44:06.370Z,4.97
2018-05-26T11:46:34.653Z,7.90
2018-05-26T11:49:02.917Z,5.03
2018-05-26T11:51:31.203Z,5.47
2018-05-26T11:53:59.464Z,6.63
2018-05-26T11:56:26.980Z,7.73
2018-05-26T11:58:54.523Z,7.40
2018-05-26T12:01:22.761Z,4.93
2018-05-26T12:03:51.044Z,8.10
2018-05-26T12:06:19.312Z,10.93
2018-05-26T12:08:47.605Z,10.40
2018-05-26T12:11:15.865Z,8.33
2018-05-26T12:13:44.148Z,8.53
2018-05-26T12:16:12.412Z,8.50
2018-05-26T12:18:39.932Z,10.30
2018-05-26T12:21:07.428Z,8.30
2018-05-26T12:23:34.946Z,9.33
2018-05-26T12:26:02.452Z,10.20
2018-05-26T12:28:30.741Z,7.00
2018-05-26T12:30:59.010Z,7.83
2018-05-26T12:33:27.288Z,7.77
2018-05-26T12:35:55.549Z,8.03
2018-05-26T12:38:23.069Z,7.80
2018-05-26T12:40:50.581Z,10.43
2018-05-26T12:43:18.872Z,10.40
2018-05-26T12:45:46.369Z,9.00
2018-05-26T12:48:13.902Z,13.60
2018-05-26T12:50:41.424Z,11.40
2018-05-26T12:53:09.691Z,10.90
2018-05-26T12:55:37.216Z,9.70
2018-05-26T12:58:04.708Z,8.10
2018-05-26T13:00:32.226Z,6.50
2018-05-26T13:02:59.721Z,7.33
2018-05-26T13:05:27.236Z,8.30
2018-05-26T13:07:54.736Z,7.60
2018-05-26T13:10:22.251Z,13.53
2018-05-26T13:12:49.744Z,8.30
2018-05-26T13:15:17.269Z,8.87
2018-05-26T13:17:44.768Z,8.40
2018-05-26T13:20:12.287Z,8.10
2018-05-26T13:22:39.785Z,8.17
2018-05-26T13:25:07.305Z,8.97
2018-05-26T13:27:34.800Z,7.53
2018-05-26T13:30:02.324Z,13.17
2018-05-26T13:32:29.824Z,9.63
2018-05-26T13:34:57.336Z,7.37
2018-05-26T13:37:24.837Z,9.50
2018-05-26T13:39:52.356Z,8.00
2018-05-26T13:42:19.853Z,6.83
2018-05-26T13:44:47.368Z,13.27
2018-05-26T13:47:14.865Z,7.73
2018-05-26T13:49:42.396Z,10.00
2018-05-26T13:52:09.996Z,11.90
2018-05-26T13:54:37.468Z,8.73
2018-05-26T13:57:04.964Z,11.53
2018-05-26T13:59:32.460Z,9.53
2018-05-26T14:01:59.977Z,6.63
2018-05-26T14:04:27.476Z,8.53
2018-05-26T14:06:55.768Z,8.30
2018-05-26T14:09:24.029Z,6.57
2018-05-26T14:11:51.550Z,9.30
2018-05-26T14:14:19.049Z,6.77
2018-05-26T14:16:47.333Z,8.77
2018-05-26T14:19:15.595Z,8.00
2018-05-26T14:21:43.108Z,7.37
2018-05-26T14:24:10.605Z,7.93
2018-05-26T14:26:38.116Z,7.20
2018-05-26T14:29:05.614Z,8.20
2018-05-26T14:31:33.132Z,11.13
2018-05-26T14:34:00.631Z,7.13
2018-05-26T14:36:28.146Z,7.20
2018-05-26T14:38:55.645Z,7.20
2018-05-26T14:41:23.160Z,7.03
2018-05-26T14:43:50.666Z,6.70
2018-05-26T14:46:18.189Z,6.40
2018-05-26T14:48:46.147Z,6.57
2018-05-26T14:51:13.662Z,7.13
2018-05-26T14:53:41.162Z,6.73
2018-05-26T14:56:08.696Z,5.80
2018-05-26T14:58:36.973Z,6.00
2018-05-26T15:01:05.237Z,5.70
2018-05-26T15:03:33.524Z,4.63
2018-05-26T15:06:01.785Z,5.13
2018-05-26T15:08:30.073Z,4.37
2018-05-26T15:10:58.336Z,5.40
2018-05-26T15:13:26.636Z,5.90
2018-05-26T15:15:54.148Z,6.80
2018-05-26T15:18:21.660Z,4.77
2018-05-26T15:20:49.165Z,4.13
2018-05-26T15:23:16.703Z,6.80
2018-05-26T15:25:44.201Z,7.20
2018-05-26T15:28:11.713Z,4.10
2018-05-26T15:30:39.212Z,5.33
2018-05-26T15:33:06.734Z,4.33
2018-05-26T15:35:34.241Z,4.10
2018-05-26T15:38:02.528Z,4.80
2018-05-26T15:40:30.794Z,3.87
2018-05-26T15:42:59.077Z,4.50
2018-05-26T15:45:27.337Z,7.47
2018-05-26T15:47:54.851Z,5.57
2018-05-26T15:50:22.353Z,4.57
2018-05-26T15:52:49.880Z,3.93
2018-05-26T15:55:17.380Z,4.33
2018-05-26T15:57:45.643Z,3.40
2018-05-26T16:00:13.161Z,3.50
2018-05-26T16:02:40.656Z,3.37
2018-05-26T16:05:08.180Z,3.60
2018-05-26T16:07:35.681Z,3.27
2018-05-26T16:10:03.968Z,4.10
2018-05-26T16:12:32.224Z,3.60
2018-05-26T16:14:59.745Z,3.53
2018-05-26T16:17:27.245Z,4.20
2018-05-26T16:19:54.765Z,3.90
2018-05-26T16:22:22.261Z,3.00
2018-05-26T16:24:49.783Z,4.73
2018-05-26T16:27:17.280Z,4.50
2018-05-26T16:29:45.563Z,3.63
2018-05-26T16:32:13.829Z,2.80
2018-05-26T16:34:41.345Z,3.30
2018-05-26T16:37:08.841Z,5.63
2018-05-26T16:39:36.357Z,4.20
2018-05-26T16:42:03.887Z,3.13
2018-05-26T16:44:32.160Z,4.73
2018-05-26T16:47:00.425Z,5.90
2018-05-26T16:49:28.704Z,3.40
2018-05-26T16:51:57.010Z,3.63
2018-05-26T16:54:24.504Z,5.23
2018-05-26T16:56:52.020Z,7.77
2018-05-26T16:59:19.517Z,4.50
2018-05-26T17:01:47.030Z,4.17
2018-05-26T17:04:14.532Z,3.23
2018-05-26T17:06:42.044Z,5.57
2018-05-26T17:09:09.540Z,3.93
2018-05-26T17:11:37.057Z,3.80
2018-05-26T17:14:04.552Z,4.30
2018-05-26T17:16:32.134Z,6.83
2018-05-26T17:18:59.594Z,6.20
2018-05-26T17:21:27.112Z,5.00
2018-05-26T17:23:54.617Z,3.70
2018-05-26T17:26:22.133Z,3.57
2018-05-26T17:28:49.632Z,4.00
2018-05-26T17:31:17.153Z,5.07
2018-05-26T17:33:44.653Z,3.43
2018-05-26T17:36:12.172Z,3.73
2018-05-26T17:38:39.675Z,4.10
2018-05-26T17:41:07.945Z,3.70
2018-05-26T17:43:35.461Z,4.20
2018-05-26T17:46:02.958Z,4.73
2018-05-26T17:48:30.472Z,5.50
2018-05-26T17:50:57.969Z,9.10
2018-05-26T17:53:25.484Z,4.80
2018-05-26T17:55:52.985Z,3.50
2018-05-26T17:58:20.504Z,6.70
2018-05-26T18:00:48.018Z,7.10
2018-05-26T18:03:16.341Z,4.60
2018-05-26T18:05:43.820Z,4.47
2018-05-26T18:08:11.333Z,7.90
2018-05-26T18:10:38.832Z,3.97
2018-05-26T18:13:06.353Z,8.20
2018-05-26T18:15:33.852Z,4.00
2018-05-26T18:18:01.370Z,5.07
2018-05-26T18:20:28.905Z,4.23
2018-05-26T18:22:56.404Z,4.40
2018-05-26T18:25:23.901Z,7.83
2018-05-26T18:27:51.428Z,5.70
2018-05-26T18:30:18.924Z,5.37
2018-05-26T18:32:46.493Z,6.00
2018-05-26T18:35:13.961Z,33.37
2018-05-26T18:37:42.238Z,44.80
2018-05-26T18:40:09.768Z,140.10
2018-05-26T18:42:37.282Z,82.47
2018-05-26T18:45:04.804Z,31.27
2018-05-26T18:47:33.073Z,16.17
2018-05-26T18:50:01.358Z,12.77
2018-05-26T18:52:29.664Z,9.57
2018-05-26T18:54:57.196Z,17.03
2018-05-26T18:57:25.461Z,25.80
2018-05-26T18:59:53.748Z,27.83
2018-05-26T19:02:22.017Z,17.57
2018-05-26T19:04:50.304Z,12.70
2018-05-26T19:07:18.563Z,13.20
2018-05-26T19:09:46.152Z,26.40
2018-05-26T19:12:13.649Z,41.70
2018-05-26T19:14:41.182Z,80.57
2018-05-26T19:17:08.724Z,106.97
2018-05-26T19:19:36.254Z,83.00
2018-05-26T19:22:03.757Z,78.70
2018-05-26T19:24:31.275Z,41.27
2018-05-26T19:26:59.572Z,13.80
2018-05-26T19:29:27.068Z,11.13
2018-05-26T19:31:54.589Z,7.80
2018-05-26T19:34:22.088Z,9.63
2018-05-26T19:36:49.716Z,14.53
2018-05-26T19:39:17.220Z,66.40
2018-05-26T19:41:44.833Z,64.60
2018-05-26T19:44:12.383Z,69.40
2018-05-26T19:46:40.672Z,89.70
2018-05-26T19:49:08.176Z,147.57
2018-05-26T19:51:35.789Z,155.97
2018-05-26T19:54:03.292Z,95.97
2018-05-26T19:56:30.821Z,155.13
2018-05-26T19:58:58.360Z,86.03
2018-05-26T20:01:25.876Z,23.13
2018-05-26T20:03:53.479Z,12.57
2018-05-26T20:06:21.363Z,25.13
2018-05-26T20:08:49.700Z,20.33
2018-05-26T20:11:17.992Z,18.23
2018-05-26T20:13:45.562Z,15.30
2018-05-26T20:16:13.104Z,21.50
2018-05-26T20:18:41.388Z,12.77
2018-05-26T20:21:08.898Z,11.67
2018-05-26T20:23:36.422Z,17.60
2018-05-26T20:26:03.929Z,17.93
2018-05-26T20:28:31.529Z,31.73
2018-05-26T20:30:59.030Z,27.20
2018-05-26T20:33:26.553Z,22.47
2018-05-26T20:35:54.109Z,12.93
2018-05-26T20:38:21.664Z,11.10
2018-05-26T20:40:49.166Z,12.17
2018-05-26T20:43:16.680Z,12.93
2018-05-26T20:45:44.181Z,15.00
2018-05-26T20:48:11.697Z,12.60
2018-05-26T20:50:39.249Z,22.30
2018-05-26T20:53:06.772Z,18.00
2018-05-26T20:55:34.373Z,17.90
2018-05-26T20:58:01.892Z,16.47
2018-05-26T21:00:29.384Z,8.17
2018-05-26T21:02:56.876Z,11.53
2018-05-26T21:05:24.389Z,7.57
2018-05-26T21:07:52.656Z,10.63
2018-05-26T21:10:20.941Z,11.70
2018-05-26T21:12:49.205Z,9.20
2018-05-26T21:15:17.492Z,8.80
2018-05-26T21:17:45.752Z,9.80
2018-05-26T21:20:13.270Z,9.30
2018-05-26T21:22:40.772Z,14.57
2018-05-26T21:25:09.056Z,19.83
2018-05-26T21:27:37.351Z,10.10
2018-05-26T21:30:05.622Z,8.57
2018-05-26T21:32:33.180Z,10.00
2018-05-26T21:35:01.462Z,13.27
2018-05-26T21:37:28.958Z,9.07
2018-05-26T21:39:56.480Z,11.30
2018-05-26T21:42:24.047Z,9.10
2018-05-26T21:44:51.602Z,9.40
2018-05-26T21:47:19.103Z,8.50
2018-05-26T21:49:46.636Z,9.37
2018-05-26T21:52:14.169Z,10.77
2018-05-26T21:54:41.721Z,9.70
2018-05-26T21:57:10.105Z,9.50
2018-05-26T21:59:37.666Z,12.10
2018-05-26T22:02:05.224Z,9.87
2018-05-26T22:04:32.716Z,9.90
2018-05-26T22:07:00.225Z,8.93
2018-05-26T22:09:28.523Z,10.17
2018-05-26T22:11:56.077Z,13.40
2018-05-26T22:14:23.655Z,10.70
2018-05-26T22:16:51.176Z,10.43
2018-05-26T22:19:19.439Z,9.67
2018-05-26T22:21:46.956Z,10.47
2018-05-26T22:24:14.452Z,11.23
2018-05-26T22:26:41.969Z,10.33
2018-05-26T22:29:09.469Z,9.87
2018-05-26T22:31:36.984Z,9.80
2018-05-26T22:34:04.523Z,9.80
2018-05-26T22:36:32.036Z,11.07
2018-05-26T22:38:59.550Z,11.30
2018-05-26T22:41:27.101Z,12.47
2018-05-26T22:43:54.654Z,10.00
2018-05-26T22:46:22.216Z,10.83
2018-05-26T22:48:50.495Z,9.97
2018-05-26T22:51:18.049Z,13.37
2018-05-26T22:53:45.570Z,11.03
2018-05-26T22:56:13.164Z,15.00
2018-05-26T22:58:40.684Z,10.20
2018-05-26T23:01:08.184Z,9.80
2018-05-26T23:03:35.753Z,14.80
2018-05-26T23:06:03.252Z,10.27
2018-05-26T23:08:30.856Z,10.20
2018-05-26T23:10:59.120Z,9.80
2018-05-26T23:13:27.400Z,9.30
2018-05-26T23:15:55.665Z,12.47
2018-05-26T23:18:23.965Z,10.13
2018-05-26T23:20:51.466Z,11.93
2018-05-26T23:23:19.081Z,10.77
2018-05-26T23:25:46.585Z,10.57
2018-05-26T23:28:14.104Z,14.30
2018-05-26T23:30:41.612Z,10.40
2018-05-26T23:33:09.132Z,18.80
2018-05-26T23:35:36.637Z,10.40
2018-05-26T23:38:04.157Z,11.40
2018-05-26T23:40:31.656Z,10.67
2018-05-26T23:42:59.180Z,10.93
2018-05-26T23:45:26.684Z,12.03
2018-05-26T23:47:54.952Z,11.40
2018-05-26T23:50:22.468Z,9.73
2018-05-26T23:52:49.960Z,12.70
2018-05-26T23:55:17.560Z,11.90
2018-05-26T23:57:45.404Z,12.00
